This is the latest recevied weather packets stored in our database for station/object N4WFF. If no packets are shown the sender has not sent any weather packets the latest 1 day(s).
| Time | Temp. | Humidity | Pressure | Rain* | Wind** | Luminosity | Snow |
|---|---|---|---|---|---|---|---|
| 1778000156 | 23.89° C | 64% | 1015.9 hPa | 0 mm | 2.68 m/s, 234° | 800 W/m² | - |
| 1777999855 | 23.89° C | 64% | 1015.8 hPa | 0 mm | 1.79 m/s, 223° | 820 W/m² | - |
| 1777999555 | 23.33° C | 64% | 1015.9 hPa | 0 mm | 0.89 m/s, 168° | 810 W/m² | - |
| 1777999257 | 23.33° C | 64% | 1015.9 hPa | 0 mm | 2.24 m/s, 244° | 863 W/m² | - |
| 1777998955 | 23.33° C | 63% | 1015.9 hPa | 0 mm | 2.24 m/s, 234° | 860 W/m² | - |
| 1777998658 | 23.33° C | 63% | 1016 hPa | 0 mm | 2.68 m/s, 213° | 886 W/m² | - |
| 1777998355 | 23.33° C | 64% | 1016 hPa | 0 mm | 3.13 m/s, 242° | 854 W/m² | - |
| 1777998056 | 23.33° C | 64% | 1016.1 hPa | 0 mm | 1.34 m/s, 235° | 767 W/m² | - |
| 1777997755 | 23.33° C | 63% | 1016.2 hPa | 0 mm | 0.89 m/s, 171° | 877 W/m² | - |
| 1777997456 | 22.78° C | 64% | 1016.3 hPa | 0 mm | 1.79 m/s, 186° | 882 W/m² | - |
| 1777997155 | 22.78° C | 64% | 1016.2 hPa | 0 mm | 1.79 m/s, 252° | 777 W/m² | - |
| 1777996855 | 22.78° C | 64% | 1016.3 hPa | 0 mm | 1.79 m/s, 241° | 824 W/m² | - |
| 1777996555 | 22.78° C | 64% | 1016.2 hPa | 0 mm | 1.79 m/s, 181° | 828 W/m² | - |
| 1777996256 | 22.78° C | 64% | 1016.2 hPa | 0 mm | 2.24 m/s, 171° | 785 W/m² | - |
| 1777995958 | 22.78° C | 63% | 1016.3 hPa | 0 mm | 2.24 m/s, 173° | 800 W/m² | - |
| 1777995656 | 22.22° C | 64% | 1016.4 hPa | 0 mm | 1.34 m/s, 196° | 778 W/m² | - |
| 1777995356 | 21.67° C | 65% | 1016.5 hPa | 0 mm | 0.89 m/s, 220° | 764 W/m² | - |
| 1777995056 | 21.67° C | 64% | 1016.5 hPa | 0 mm | 1.79 m/s, 190° | 512 W/m² | - |
| 1777994755 | 21.67° C | 64% | 1016.5 hPa | 0 mm | 0.89 m/s, 130° | 783 W/m² | - |
| 1777994455 | 21.67° C | 64% | 1016.6 hPa | 0 mm | 2.24 m/s, 215° | 440 W/m² | - |
| 1777994156 | 21.67° C | 65% | 1016.6 hPa | 0 mm | 1.79 m/s, 170° | 758 W/m² | - |
| 1777993858 | 21.67° C | 65% | 1016.7 hPa | 0 mm | 2.24 m/s, 187° | 684 W/m² | - |
| 1777993556 | 21.67° C | 65% | 1016.6 hPa | 0 mm | 2.68 m/s, 192° | 687 W/m² | - |
| 1777993256 | 21.67° C | 64% | 1016.7 hPa | 0 mm | 1.79 m/s, 209° | 681 W/m² | - |
| 1777992956 | 21.11° C | 65% | 1016.7 hPa | 0 mm | 0 m/s | 693 W/m² | - |
* Rain latest hour (hover to see other rain measurements)
** Current wind speed in m/s (hover to see current wind gust speed)